Licenciado Benito Juarez International Airport
MMMX : rendu visible

Aérodrome :











RETROUVEZ-NOUS SUR...

 
LOGIN :

S'inscrire | Disclaimer

   EN    FR    IT 

 









Légende :    VFR   VFR Marginal   IFR   IFR Intensif   IFR Très Intensif
Visi : 
Plafond : 
>= 8 km
>= 3000ft
5 à 8 km
1000 à 3000 ft
1500m à 5 km
500 à 1000 ft
800 à 1500m
200 à 500 ft
< 800m
< 200 ft
Symboles :   Orages  Brouillard  Fortes neiges  Fortes précipitations  Vent > 20 kt






- Altitude de l'aérodrome : 7316 ft
- Code IATA : MEX


MMMX - Licenciado Benito Juarez International

DERNIER METAR :
  • 241345Z 19005KT 7SM SKC 15/05 A3029 NOSIG RMK HZY

METARs EXPIRÉS :
  • 241245Z 00000KT 7SM SKC 13/03 A3028 NOSIG RMK HZY CI
  • 241146Z 07004KT 8SM SKC 13/04 A3027 NOSIG RMK SLP070 57003 978 HZY CI

TAF TAF MMMX
Valide du 24 à 12h jusqu'au 25 à 18h UTC


241104Z 2412/2518 10007KT P6SM SKC TX28/2421Z TN12/2412Z
FM241800 25010KT P6SM SCT020 SCT250
FM250600 24005KT P6SM SKC
FM251700 23010KT P6SM SCT025 BKN250



MET'MAP, la Météo Aéronautique d'un coup d'oeil ! - Copyright ORBIFLY Décembre 2007 - Disclaimer

ORBIFLY MET'MAP TEAM :

Programmation & Développement : Alexandra Zaïnal
Sur une idée originale de : Baudouin d'Aumeries
Assistance à la programmation : Marc-Olivier Méhu
Soutien technique & logistique : Manuel Goepfert

Contact : metmap@orbifly.com




SOURCES & CREDITS :

   NOAA       Earth
Advisory